Time;durP1;ratioP1;P1;durP2;ratioP2;P2;SDS_P1;SDS_P2;PMS_P1;PMS_P2;Temp;Humidity;BMP_temperature;BMP_pressure;BME280_temperature;BME280_humidity;BME280_pressure;Samples;Min_cycle;Max_cycle;Signal;HPM_P1;HPM_P2
2020/12/05 00:02:11;;;;;;;44.35;28.35;;;2.00;99.90;;;;;;5028148;28;20049;-73
2020/12/05 00:04:38;;;;;;;51.45;30.73;;;1.90;99.90;;;;;;5028940;28;20553;-73
2020/12/05 00:07:04;;;;;;;45.83;29.08;;;2.00;99.90;;;;;;5027296;28;20107;-73
2020/12/05 00:09:31;;;;;;;51.10;30.23;;;1.90;99.90;;;;;;5028636;28;20104;-74
2020/12/05 00:12:01;;;;;;;53.00;31.05;;;1.90;99.90;;;;;;5011227;28;20441;-73
2020/12/05 00:14:28;;;;;;;54.80;34.17;;;1.90;99.90;;;;;;5027123;28;20153;-72
2020/12/05 00:16:55;;;;;;;51.60;33.15;;;1.90;99.90;;;;;;5009966;28;20049;-72
2020/12/05 00:19:21;;;;;;;56.03;33.13;;;1.90;99.90;;;;;;5027190;28;20172;-73
2020/12/05 00:21:55;;;;;;;56.22;32.88;;;1.80;99.90;;;;;;5043300;28;20156;-72
2020/12/05 00:24:22;;;;;;;53.88;33.30;;;1.70;99.90;;;;;;5048166;28;20041;-72
2020/12/05 00:26:52;;;;;;;58.67;35.95;;;1.70;99.90;;;;;;5046100;28;20128;-72
2020/12/05 00:29:20;;;;;;;64.65;37.70;;;1.60;99.90;;;;;;5048141;28;20067;-73
2020/12/05 00:31:53;;;;;;;64.65;36.97;;;1.60;99.90;;;;;;5047036;28;20140;-73
2020/12/05 00:34:20;;;;;;;60.70;36.35;;;1.60;99.90;;;;;;5048783;28;20372;-72
2020/12/05 00:36:47;;;;;;;74.38;40.15;;;1.60;99.90;;;;;;5048801;28;20512;-72
2020/12/05 00:39:13;;;;;;;72.53;39.75;;;1.60;99.90;;;;;;5046603;28;20160;-71
2020/12/05 00:41:40;;;;;;;75.60;41.90;;;1.60;99.90;;;;;;5048046;28;20148;-71
2020/12/05 00:44:07;;;;;;;75.85;40.58;;;1.60;99.90;;;;;;5047412;28;20037;-73
2020/12/05 00:46:34;;;;;;;72.53;40.05;;;1.70;99.90;;;;;;5046845;28;20052;-72
2020/12/05 00:49:00;;;;;;;82.22;43.47;;;1.70;99.90;;;;;;5051957;28;20507;-71
2020/12/05 00:51:27;;;;;;;79.10;43.42;;;1.70;99.90;;;;;;5050955;28;20124;-73
2020/12/05 00:53:54;;;;;;;82.82;44.47;;;1.70;99.90;;;;;;5050992;28;20575;-73
2020/12/05 00:56:21;;;;;;;87.53;45.15;;;1.70;99.90;;;;;;5050656;28;20083;-72
2020/12/05 00:58:47;;;;;;;85.43;45.92;;;1.70;99.90;;;;;;5050319;28;20052;-71
2020/12/05 01:01:15;;;;;;;84.30;44.50;;;1.70;99.90;;;;;;5050576;28;20049;-71
2020/12/05 01:03:42;;;;;;;93.60;46.92;;;1.70;99.90;;;;;;5051621;28;20124;-71
2020/12/05 01:06:15;;;;;;;86.30;47.78;;;1.70;99.90;;;;;;5050685;28;20403;-71
2020/12/05 01:08:42;;;;;;;101.47;50.08;;;1.70;99.90;;;;;;5050157;28;20144;-70
2020/12/05 01:11:14;;;;;;;96.60;49.70;;;1.60;99.90;;;;;;5050805;28;20066;-70
2020/12/05 01:13:41;;;;;;;100.20;50.35;;;1.60;99.90;;;;;;5049778;28;20083;-71
2020/12/05 01:16:18;;;;;;;103.60;50.80;;;1.50;99.90;;;;;;5051000;28;20128;-72
2020/12/05 01:18:45;;;;;;;109.63;50.75;;;1.40;99.90;;;;;;5049656;28;20124;-72
2020/12/05 01:21:15;;;;;;;104.00;51.38;;;1.40;99.90;;;;;;5050419;28;20140;-72
2020/12/05 01:23:42;;;;;;;108.47;55.20;;;1.30;99.90;;;;;;5048857;28;20503;-73
2020/12/05 01:26:08;;;;;;;118.25;56.67;;;1.30;99.90;;;;;;5049001;28;20536;-72
2020/12/05 01:28:35;;;;;;;117.45;54.03;;;1.30;99.90;;;;;;5049103;28;20397;-71
2020/12/05 01:31:03;;;;;;;118.32;52.60;;;1.20;99.90;;;;;;5049150;28;20420;-72
2020/12/05 01:33:31;;;;;;;116.57;51.42;;;1.10;99.90;;;;;;5050744;28;20103;-74
2020/12/05 01:35:59;;;;;;;110.40;48.45;;;1.00;99.90;;;;;;5049695;28;20045;-72
2020/12/05 01:38:26;;;;;;;109.00;48.08;;;0.90;99.90;;;;;;5049136;28;20111;-74
2020/12/05 01:40:57;;;;;;;107.25;46.45;;;0.80;99.90;;;;;;5050677;28;20041;-72
2020/12/05 01:43:25;;;;;;;115.68;48.00;;;0.80;99.90;;;;;;5049284;28;20063;-74
2020/12/05 01:45:52;;;;;;;119.57;49.05;;;0.80;99.90;;;;;;5049818;28;20135;-71
2020/12/05 01:48:20;;;;;;;115.03;47.90;;;0.70;99.90;;;;;;5050549;28;20126;-72
2020/12/05 01:50:48;;;;;;;113.00;47.28;;;0.70;99.90;;;;;;5050904;28;20373;-72
2020/12/05 01:53:15;;;;;;;120.68;48.83;;;0.70;99.90;;;;;;5046354;28;20111;-72
2020/12/05 01:55:44;;;;;;;128.25;49.45;;;0.70;99.90;;;;;;5044151;28;20450;-71
2020/12/05 01:58:11;;;;;;;122.43;48.72;;;0.70;99.90;;;;;;5047641;28;20079;-71
2020/12/05 02:00:38;;;;;;;122.85;48.70;;;0.60;99.90;;;;;;5044807;28;20470;-71
2020/12/05 02:03:06;;;;;;;119.32;48.83;;;0.60;99.90;;;;;;5047603;28;20076;-71
2020/12/05 02:05:35;;;;;;;116.72;47.75;;;0.60;99.90;;;;;;5048989;28;20073;-73
2020/12/05 02:08:10;;;;;;;127.18;51.55;;;0.60;99.90;;;;;;5050300;28;20048;-71
2020/12/05 02:10:40;;;;;;;121.60;49.90;;;0.60;99.90;;;;;;5049753;28;20088;-73
2020/12/05 02:13:12;;;;;;;127.53;50.08;;;0.60;99.90;;;;;;5046701;28;20095;-74
2020/12/05 02:15:39;;;;;;;149.30;52.58;;;0.60;99.90;;;;;;5048298;28;20134;-71
2020/12/05 02:18:08;;;;;;;151.85;53.95;;;0.50;99.90;;;;;;5050045;28;20117;-71
2020/12/05 02:20:39;;;;;;;136.27;51.15;;;0.50;99.90;;;;;;5032168;28;20149;-72
2020/12/05 02:23:15;;;;;;;134.90;52.83;;;0.50;99.90;;;;;;5029956;28;20448;-72
2020/12/05 02:25:47;;;;;;;146.05;52.83;;;0.60;99.90;;;;;;5029387;28;20045;-72
2020/12/05 02:28:15;;;;;;;143.80;54.38;;;0.60;99.90;;;;;;5011009;28;20410;-71
2020/12/05 02:30:42;;;;;;;133.93;53.38;;;0.60;99.90;;;;;;5018155;28;20132;-71
2020/12/05 02:33:08;;;;;;;125.07;51.97;;;0.60;99.90;;;;;;5029885;28;20121;-72
2020/12/05 02:35:35;;;;;;;127.72;49.17;;;0.60;99.90;;;;;;5030246;28;20087;-71
2020/12/05 02:38:21;;;;;;;129.13;50.97;;;0.60;99.90;;;;;;5010242;28;20045;-72
2020/12/05 02:40:48;;;;;;;118.18;47.97;;;0.60;99.90;;;;;;5028311;28;20045;-72
2020/12/05 02:43:14;;;;;;;118.28;47.78;;;0.60;99.90;;;;;;5014199;28;20539;-71
2020/12/05 02:45:41;;;;;;;120.78;49.17;;;0.60;99.90;;;;;;5028482;28;20485;-71
2020/12/05 02:48:08;;;;;;;116.05;46.88;;;0.60;99.90;;;;;;5010387;28;20124;-72
2020/12/05 02:50:36;;;;;;;110.88;46.13;;;0.60;99.90;;;;;;5027490;28;20107;-72
2020/12/05 02:53:04;;;;;;;111.72;46.35;;;0.60;99.90;;;;;;5029313;28;20076;-71
2020/12/05 02:55:30;;;;;;;102.47;45.13;;;0.60;99.90;;;;;;5013013;28;20085;-73
2020/12/05 02:57:56;;;;;;;98.78;41.63;;;0.60;99.90;;;;;;5012936;28;20053;-71
2020/12/05 03:00:23;;;;;;;95.82;43.03;;;0.60;99.90;;;;;;5028499;28;20469;-72
2020/12/05 03:02:50;;;;;;;89.80;39.67;;;0.60;99.90;;;;;;5010994;28;20081;-72
2020/12/05 03:05:18;;;;;;;95.25;42.45;;;0.60;99.90;;;;;;5018251;28;20417;-72
2020/12/05 03:07:45;;;;;;;88.82;41.92;;;0.60;99.90;;;;;;5007500;28;20061;-72
2020/12/05 03:10:14;;;;;;;97.32;40.97;;;0.60;99.90;;;;;;5004919;28;20121;-72
2020/12/05 03:12:40;;;;;;;105.95;45.08;;;0.60;99.90;;;;;;4994476;28;20409;-73
2020/12/05 03:15:07;;;;;;;94.03;43.20;;;0.60;99.90;;;;;;5010333;28;20080;-75
2020/12/05 03:17:33;;;;;;;100.85;43.95;;;0.60;99.90;;;;;;5011497;28;20053;-71
2020/12/05 03:20:00;;;;;;;91.53;41.00;;;0.60;99.90;;;;;;5028790;28;20104;-71
2020/12/05 03:22:28;;;;;;;90.72;40.15;;;0.60;99.90;;;;;;5028601;28;20129;-73
2020/12/05 03:24:55;;;;;;;87.93;39.92;;;0.60;99.90;;;;;;5009677;28;20076;-72
2020/12/05 03:27:23;;;;;;;87.55;39.92;;;0.60;99.90;;;;;;5009244;28;20554;-72
2020/12/05 03:29:54;;;;;;;94.10;39.28;;;0.60;99.90;;;;;;5009692;28;20049;-73
2020/12/05 03:32:25;;;;;;;87.82;39.80;;;0.60;99.90;;;;;;5028371;28;20080;-74
2020/12/05 03:34:51;;;;;;;90.88;40.97;;;0.60;99.90;;;;;;5012539;28;20050;-71
2020/12/05 03:37:19;;;;;;;92.40;42.35;;;0.70;99.90;;;;;;4994181;28;20085;-73
2020/12/05 03:39:46;;;;;;;97.05;42.88;;;0.70;99.90;;;;;;5028118;28;20045;-72
2020/12/05 03:42:12;;;;;;;93.07;40.75;;;0.70;99.90;;;;;;5007731;28;20197;-71
2020/12/05 03:44:38;;;;;;;90.53;40.58;;;0.70;99.90;;;;;;5025774;28;20081;-72
2020/12/05 03:47:05;;;;;;;86.90;42.13;;;0.70;99.90;;;;;;5010220;28;20403;-72
2020/12/05 03:49:32;;;;;;;86.53;40.65;;;0.80;99.90;;;;;;5011427;28;20080;-73
2020/12/05 03:52:00;;;;;;;79.25;38.50;;;0.70;99.90;;;;;;5028477;28;20411;-73
2020/12/05 03:54:28;;;;;;;81.13;38.78;;;0.80;99.90;;;;;;5010108;28;20072;-73
2020/12/05 03:56:56;;;;;;;88.45;39.67;;;0.80;99.90;;;;;;5010202;28;20223;-72
2020/12/05 03:59:24;;;;;;;80.80;38.50;;;0.70;99.90;;;;;;5028189;28;20049;-73
2020/12/05 04:01:51;;;;;;;80.72;40.20;;;0.70;99.90;;;;;;4997163;28;20045;-72
2020/12/05 04:04:18;;;;;;;73.63;37.25;;;0.70;99.90;;;;;;5010876;28;20124;-72
2020/12/05 04:06:44;;;;;;;73.50;35.08;;;0.80;99.90;;;;;;5010755;28;20065;-72
2020/12/05 04:09:10;;;;;;;75.43;38.13;;;0.80;99.90;;;;;;5010139;28;20111;-73
2020/12/05 04:11:40;;;;;;;76.63;36.20;;;0.80;99.90;;;;;;5010890;28;20127;-72
2020/12/05 04:14:10;;;;;;;66.20;34.72;;;0.80;99.90;;;;;;5010420;28;20044;-72
2020/12/05 04:16:37;;;;;;;64.75;33.63;;;0.80;99.90;;;;;;5009607;28;20080;-72
2020/12/05 04:19:05;;;;;;;61.90;32.85;;;0.80;99.90;;;;;;5007579;28;20080;-72
2020/12/05 04:21:31;;;;;;;63.83;32.47;;;0.80;99.90;;;;;;5048100;28;20126;-73
2020/12/05 04:23:58;;;;;;;66.35;32.53;;;0.80;99.90;;;;;;5051261;28;20045;-72
2020/12/05 04:26:24;;;;;;;55.63;31.80;;;0.80;99.90;;;;;;5050323;28;20053;-73
2020/12/05 04:28:51;;;;;;;57.97;31.45;;;0.80;99.90;;;;;;5049678;28;20048;-72
2020/12/05 04:31:18;;;;;;;63.55;31.55;;;0.80;99.90;;;;;;5041481;28;20110;-71
2020/12/05 04:33:45;;;;;;;51.38;29.08;;;0.80;99.90;;;;;;5051412;28;20057;-72
2020/12/05 04:36:11;;;;;;;60.92;30.58;;;0.80;99.90;;;;;;5050317;28;20177;-71
2020/12/05 04:38:38;;;;;;;54.03;29.15;;;0.80;99.90;;;;;;5049937;28;20077;-71
2020/12/05 04:41:04;;;;;;;54.75;28.52;;;0.80;99.90;;;;;;5051738;28;20128;-70
2020/12/05 04:43:36;;;;;;;53.03;28.55;;;0.70;99.90;;;;;;5051272;28;20088;-70
2020/12/05 04:46:03;;;;;;;48.95;26.15;;;0.70;99.90;;;;;;5050788;28;20055;-71
2020/12/05 04:48:33;;;;;;;55.40;28.75;;;0.70;99.90;;;;;;5051918;28;20125;-72
2020/12/05 04:51:02;;;;;;;51.25;26.58;;;0.70;99.90;;;;;;5050586;28;20083;-70
2020/12/05 04:53:30;;;;;;;51.88;27.30;;;0.70;99.90;;;;;;5051406;28;20044;-71
2020/12/05 04:55:59;;;;;;;53.00;27.80;;;0.70;99.90;;;;;;5049555;28;20109;-71
2020/12/05 04:58:26;;;;;;;46.95;24.85;;;0.70;99.90;;;;;;5050206;28;20475;-72
2020/12/05 05:00:57;;;;;;;48.00;26.20;;;0.70;99.90;;;;;;5050749;28;20112;-71
2020/12/05 05:03:26;;;;;;;44.95;24.63;;;0.70;99.90;;;;;;5049974;28;20453;-71
2020/12/05 05:05:56;;;;;;;47.00;24.77;;;0.70;99.90;;;;;;5051277;28;20041;-71
2020/12/05 05:08:27;;;;;;;41.90;23.00;;;0.70;99.90;;;;;;5050057;28;20416;-71
2020/12/05 05:11:09;;;;;;;32.65;18.98;;;0.70;99.90;;;;;;5049468;28;20508;-71
2020/12/05 05:13:50;;;;;;;45.75;23.02;;;0.80;99.90;;;;;;5051328;28;20049;-71
2020/12/05 05:16:17;;;;;;;40.45;21.65;;;0.70;99.90;;;;;;5049550;28;20076;-71
2020/12/05 05:18:43;;;;;;;35.28;20.33;;;0.70;99.90;;;;;;5047266;28;20122;-71
2020/12/05 05:21:31;;;;;;;33.72;19.35;;;0.70;99.90;;;;;;5013633;28;20457;-71
2020/12/05 05:24:00;;;;;;;35.92;20.92;;;0.80;99.90;;;;;;5021393;28;20085;-73
2020/12/05 05:26:29;;;;;;;39.75;22.95;;;0.80;99.90;;;;;;5031346;28;20097;-72
2020/12/05 05:28:55;;;;;;;38.15;21.80;;;0.80;99.90;;;;;;5030303;28;20528;-72
2020/12/05 05:31:42;;;;;;;38.42;22.58;;;0.80;99.90;;;;;;5012587;28;20084;-73
2020/12/05 05:34:17;;;;;;;38.63;22.75;;;0.80;99.90;;;;;;5012175;28;20050;-72
2020/12/05 05:36:45;;;;;;;40.53;23.73;;;0.80;99.90;;;;;;5013735;28;20429;-72
2020/12/05 05:39:13;;;;;;;35.53;21.52;;;0.80;99.90;;;;;;5029756;28;20106;-72
2020/12/05 05:41:44;;;;;;;35.55;22.58;;;0.80;99.90;;;;;;5031086;28;20073;-71
2020/12/05 05:44:14;;;;;;;35.90;20.30;;;0.80;99.90;;;;;;5030051;28;20124;-72
2020/12/05 05:46:46;;;;;;;37.50;21.92;;;0.80;99.90;;;;;;5011688;28;20441;-71
2020/12/05 05:49:23;;;;;;;37.28;21.65;;;0.80;99.90;;;;;;5031190;28;20060;-72
2020/12/05 05:51:50;;;;;;;34.92;21.20;;;0.80;99.90;;;;;;5013235;28;20384;-72
2020/12/05 05:54:30;;;;;;;33.83;20.35;;;0.80;99.90;;;;;;5029889;28;20111;-71
2020/12/05 05:57:02;;;;;;;26.92;18.27;;;0.90;99.90;;;;;;5029848;28;20392;-73
2020/12/05 05:59:31;;;;;;;30.52;17.67;;;0.90;99.90;;;;;;5011617;28;20136;-73
2020/12/05 06:01:59;;;;;;;27.42;16.63;;;0.90;99.90;;;;;;5028856;28;20500;-73
2020/12/05 06:04:34;;;;;;;25.45;16.30;;;0.90;99.90;;;;;;5030579;28;20085;-72
2020/12/05 06:07:03;;;;;;;26.50;15.77;;;1.00;99.90;;;;;;5012577;28;20049;-72
2020/12/05 06:09:43;;;;;;;25.00;15.43;;;0.90;99.90;;;;;;5012503;28;20045;-71
2020/12/05 06:12:11;;;;;;;24.52;15.00;;;1.00;99.90;;;;;;5030308;28;20124;-72
2020/12/05 06:14:41;;;;;;;19.98;14.43;;;1.00;99.90;;;;;;5029715;28;20073;-72
2020/12/05 06:17:08;;;;;;;23.75;15.02;;;1.00;99.90;;;;;;5002139;28;20084;-73
2020/12/05 06:19:38;;;;;;;21.50;14.45;;;1.00;99.90;;;;;;5030181;28;20592;-71
2020/12/05 06:22:07;;;;;;;21.48;14.77;;;0.90;99.90;;;;;;5027855;28;20077;-72
2020/12/05 06:24:50;;;;;;;22.05;14.82;;;0.90;99.90;;;;;;5029325;28;20045;-72
2020/12/05 06:27:18;;;;;;;21.27;14.63;;;0.90;99.90;;;;;;5029557;28;20077;-71
2020/12/05 06:29:44;;;;;;;17.50;13.40;;;0.90;99.90;;;;;;5010984;28;20453;-72
2020/12/05 06:32:11;;;;;;;20.23;14.23;;;0.90;99.90;;;;;;5011031;28;20148;-72
2020/12/05 06:34:40;;;;;;;21.10;14.20;;;0.90;99.90;;;;;;5012073;28;20115;-72
2020/12/05 06:37:08;;;;;;;23.33;14.10;;;0.90;99.90;;;;;;5029446;28;20092;-75
2020/12/05 06:39:35;;;;;;;23.95;14.60;;;0.80;99.90;;;;;;5026199;28;20132;-71
2020/12/05 06:42:02;;;;;;;22.05;13.93;;;0.90;99.90;;;;;;5029401;28;20057;-71
2020/12/05 06:44:31;;;;;;;20.45;13.45;;;0.80;99.90;;;;;;5027880;28;20077;-72
2020/12/05 06:46:59;;;;;;;21.45;12.75;;;0.80;99.90;;;;;;5014010;28;20064;-72
2020/12/05 06:49:37;;;;;;;18.52;11.90;;;0.80;99.90;;;;;;5029905;28;20076;-72
2020/12/05 06:52:23;;;;;;;16.77;11.77;;;0.80;99.90;;;;;;5008701;28;20518;-73
2020/12/05 06:54:49;;;;;;;19.17;12.18;;;0.80;99.90;;;;;;5028321;28;20465;-72
2020/12/05 06:57:16;;;;;;;19.95;12.80;;;0.80;99.90;;;;;;5028492;28;20493;-72
2020/12/05 06:59:43;;;;;;;17.85;12.48;;;0.80;99.90;;;;;;5028250;28;20077;-71
2020/12/05 07:02:28;;;;;;;17.40;11.30;;;0.80;99.90;;;;;;5010706;28;20049;-71
2020/12/05 07:05:16;;;;;;;19.88;12.38;;;0.80;99.90;;;;;;5029178;28;20045;-72
2020/12/05 07:07:43;;;;;;;16.10;10.55;;;0.90;99.90;;;;;;5028288;28;21628;-73
2020/12/05 07:10:09;;;;;;;16.08;10.45;;;0.90;99.90;;;;;;5010472;28;20076;-72
2020/12/05 07:12:37;;;;;;;12.80;9.75;;;0.90;99.90;;;;;;5028615;28;20080;-71
2020/12/05 07:15:27;;;;;;;13.77;10.05;;;1.00;99.90;;;;;;5010534;28;20218;-72
2020/12/05 07:17:55;;;;;;;14.15;9.77;;;1.00;99.90;;;;;;5011509;28;20130;-72
2020/12/05 07:20:22;;;;;;;13.30;10.18;;;1.00;99.90;;;;;;5028811;28;20081;-72
2020/12/05 07:22:53;;;;;;;17.02;11.63;;;1.00;99.90;;;;;;5026535;28;20131;-72
2020/12/05 07:25:21;;;;;;;12.30;9.15;;;1.00;99.90;;;;;;5023099;28;20042;-73
2020/12/05 07:27:48;;;;;;;14.98;9.85;;;1.00;99.90;;;;;;5026918;28;20500;-73
2020/12/05 07:30:15;;;;;;;14.13;8.88;;;1.00;99.90;;;;;;5026855;28;20451;-72
2020/12/05 07:32:43;;;;;;;13.93;9.55;;;1.00;99.90;;;;;;5027979;28;20488;-72
2020/12/05 07:35:15;;;;;;;11.27;8.52;;;1.10;99.90;;;;;;5028590;28;20064;-73
2020/12/05 07:37:43;;;;;;;14.88;9.50;;;1.10;99.90;;;;;;5022290;28;20389;-73
2020/12/05 07:40:09;;;;;;;15.65;10.27;;;1.10;99.90;;;;;;5025105;28;20473;-73
2020/12/05 07:42:41;;;;;;;11.82;8.82;;;1.10;99.90;;;;;;5028048;28;20057;-73
2020/12/05 07:45:10;;;;;;;11.75;8.95;;;1.10;99.90;;;;;;5008966;28;20077;-77
2020/12/05 07:47:37;;;;;;;12.05;8.93;;;1.10;99.90;;;;;;5015378;28;20126;-77
2020/12/05 07:50:04;;;;;;;14.40;9.35;;;1.20;99.90;;;;;;5025091;28;20080;-72
2020/12/05 07:52:43;;;;;;;15.10;9.25;;;1.20;99.90;;;;;;5022593;28;20052;-71
2020/12/05 07:55:11;;;;;;;12.10;8.85;;;1.10;99.90;;;;;;5024433;28;20411;-72
2020/12/05 07:57:49;;;;;;;13.70;9.40;;;1.10;99.90;;;;;;5006959;28;20129;-76
2020/12/05 08:00:19;;;;;;;14.65;10.93;;;1.20;99.90;;;;;;5031547;28;20449;-72
2020/12/05 08:02:50;;;;;;;13.63;10.05;;;1.10;99.90;;;;;;5032196;28;20440;-72
2020/12/05 08:05:29;;;;;;;13.90;8.73;;;1.20;99.90;;;;;;5014650;28;20041;-72
2020/12/05 08:07:58;;;;;;;13.40;9.05;;;1.20;99.90;;;;;;5031448;28;20077;-72
2020/12/05 08:10:29;;;;;;;13.25;8.00;;;1.20;99.90;;;;;;5012752;28;20053;-73
2020/12/05 08:13:20;;;;;;;9.87;8.10;;;1.20;99.90;;;;;;5030968;28;20467;-71
2020/12/05 08:15:51;;;;;;;9.90;7.20;;;1.30;99.90;;;;;;5029776;28;20410;-72
2020/12/05 08:18:19;;;;;;;12.35;7.65;;;1.30;99.90;;;;;;4998587;28;20523;-72
2020/12/05 08:20:47;;;;;;;10.73;7.15;;;1.30;99.90;;;;;;5031466;28;20064;-72
2020/12/05 08:23:31;;;;;;;9.38;7.43;;;1.30;99.90;;;;;;5050327;28;20384;-71
2020/12/05 08:26:09;;;;;;;11.73;7.05;;;1.40;99.90;;;;;;5049277;28;20048;-72
2020/12/05 08:28:44;;;;;;;9.68;7.75;;;1.30;99.90;;;;;;5049974;28;20479;-72
2020/12/05 08:31:13;;;;;;;13.98;8.98;;;1.40;99.90;;;;;;5047722;28;20063;-71
2020/12/05 08:33:48;;;;;;;15.35;10.43;;;1.40;99.90;;;;;;5046864;28;20049;-74
2020/12/05 08:36:20;;;;;;;19.65;13.48;;;1.40;99.90;;;;;;5049213;28;20053;-71
2020/12/05 08:38:47;;;;;;;;;;;1.40;99.90;;;;;;5062329;28;20123;-72
2020/12/05 08:41:14;;;;;;;21.20;13.32;;;1.40;99.90;;;;;;5051511;28;19991;-72
2020/12/05 08:43:41;;;;;;;20.98;13.50;;;1.40;99.90;;;;;;5049358;28;20518;-72
2020/12/05 08:46:16;;;;;;;17.27;13.27;;;1.40;99.90;;;;;;5050630;28;20046;-71
2020/12/05 08:48:42;;;;;;;19.05;12.68;;;1.50;99.90;;;;;;5046127;28;20488;-73
2020/12/05 08:51:09;;;;;;;16.15;11.98;;;1.50;99.90;;;;;;5051816;28;20495;-73
2020/12/05 08:53:36;;;;;;;18.58;13.00;;;1.50;99.90;;;;;;5051840;28;20110;-73
2020/12/05 08:56:03;;;;;;;20.00;14.15;;;1.50;99.90;;;;;;5050641;28;20185;-73
2020/12/05 08:58:46;;;;;;;17.63;12.82;;;1.50;99.90;;;;;;5046963;28;20118;-73
2020/12/05 09:01:14;;;;;;;20.88;13.50;;;1.60;99.90;;;;;;5047337;28;20045;-74
2020/12/05 09:03:41;;;;;;;16.58;12.43;;;1.60;99.90;;;;;;5050619;28;20049;-73
2020/12/05 09:06:08;;;;;;;19.83;13.82;;;1.60;99.90;;;;;;5050371;28;20045;-74
2020/12/05 09:08:35;;;;;;;22.95;14.38;;;1.70;99.90;;;;;;5050652;28;20049;-74
2020/12/05 09:11:02;;;;;;;18.90;13.18;;;1.70;99.90;;;;;;5050530;28;20053;-74
2020/12/05 09:13:28;;;;;;;19.30;13.75;;;1.70;99.90;;;;;;5045563;28;20487;-73
2020/12/05 09:15:58;;;;;;;19.63;13.93;;;1.70;99.90;;;;;;5048521;28;20060;-74
2020/12/05 09:18:25;;;;;;;20.63;12.40;;;1.70;99.90;;;;;;5050714;28;20053;-72
2020/12/05 09:20:51;;;;;;;16.80;12.18;;;1.70;99.90;;;;;;5049616;28;20049;-72
2020/12/05 09:23:29;;;;;;;20.63;14.02;;;1.70;99.90;;;;;;5048643;28;20052;-72
2020/12/05 09:26:04;;;;;;;15.82;11.23;;;1.90;99.90;;;;;;5049027;28;20506;-73
2020/12/05 09:28:32;;;;;;;15.18;11.68;;;1.90;99.90;;;;;;5049514;28;20143;-73
2020/12/05 09:31:03;;;;;;;15.35;11.75;;;2.10;99.90;;;;;;5044255;28;20037;-72
2020/12/05 09:33:29;;;;;;;13.35;11.00;;;2.20;99.90;;;;;;5047903;28;20106;-73
2020/12/05 09:35:56;;;;;;;17.70;10.23;;;2.30;99.90;;;;;;5049035;28;20049;-72
2020/12/05 09:38:22;;;;;;;14.13;10.50;;;2.30;99.90;;;;;;5049451;28;20072;-72
2020/12/05 09:40:49;;;;;;;13.50;9.93;;;2.40;99.90;;;;;;5050692;28;20055;-72
2020/12/05 09:43:15;;;;;;;13.88;10.48;;;2.40;99.90;;;;;;5047978;28;20484;-72
2020/12/05 09:45:43;;;;;;;14.10;10.52;;;2.40;99.90;;;;;;5049574;28;20045;-73
2020/12/05 09:48:09;;;;;;;14.95;10.70;;;2.40;99.90;;;;;;5048662;28;20071;-73
2020/12/05 09:50:36;;;;;;;14.85;11.45;;;2.40;99.90;;;;;;5050558;28;20433;-73
2020/12/05 09:53:03;;;;;;;15.57;12.27;;;2.30;99.90;;;;;;5049458;28;20098;-73
2020/12/05 09:55:30;;;;;;;15.70;12.35;;;2.30;99.90;;;;;;5049317;28;20045;-72
2020/12/05 09:57:56;;;;;;;15.82;12.32;;;2.30;99.90;;;;;;5046725;28;20262;-73
2020/12/05 10:00:23;;;;;;;17.00;11.93;;;2.20;99.90;;;;;;5043786;28;20095;-72
2020/12/05 10:02:50;;;;;;;32.15;19.80;;;2.30;99.90;;;;;;5048385;28;20048;-73
2020/12/05 10:05:16;;;;;;;24.45;16.15;;;2.20;99.90;;;;;;5046789;28;20045;-72
2020/12/05 10:07:43;;;;;;;20.73;13.65;;;2.10;99.90;;;;;;5045829;28;20114;-72
2020/12/05 10:10:12;;;;;;;21.00;13.00;;;2.00;99.90;;;;;;5049681;28;20063;-76
2020/12/05 10:12:39;;;;;;;16.35;12.45;;;2.20;99.90;;;;;;5043705;28;20167;-73
2020/12/05 10:15:06;;;;;;;15.68;12.00;;;2.30;99.90;;;;;;5043040;28;20504;-74
2020/12/05 10:17:36;;;;;;;15.60;10.77;;;2.30;99.90;;;;;;5043359;28;20496;-74
2020/12/05 10:20:07;;;;;;;19.10;12.45;;;2.30;99.90;;;;;;5045337;28;20447;-73
2020/12/05 10:22:34;;;;;;;19.33;13.38;;;2.30;99.90;;;;;;5048908;28;20465;-73
2020/12/05 10:25:02;;;;;;;15.82;11.30;;;2.20;99.90;;;;;;5047234;28;20208;-73
2020/12/05 10:27:28;;;;;;;17.38;13.40;;;2.20;99.90;;;;;;5046256;28;20041;-72
2020/12/05 10:29:55;;;;;;;19.17;14.13;;;2.20;99.90;;;;;;5048590;28;20338;-73
2020/12/05 10:32:21;;;;;;;22.65;15.82;;;2.20;99.90;;;;;;5046504;28;20048;-72
2020/12/05 10:34:48;;;;;;;23.33;16.00;;;2.10;99.90;;;;;;5047414;28;20045;-72
2020/12/05 10:37:14;;;;;;;21.30;15.27;;;2.10;99.90;;;;;;5039849;28;20123;-73
2020/12/05 10:39:41;;;;;;;25.52;15.27;;;2.10;99.90;;;;;;5045812;28;20121;-73
2020/12/05 10:42:08;;;;;;;20.80;14.60;;;2.00;99.90;;;;;;5043927;28;20409;-75
2020/12/05 10:44:34;;;;;;;22.80;15.57;;;2.00;99.90;;;;;;5048226;28;20376;-74
2020/12/05 10:47:04;;;;;;;22.55;15.40;;;2.00;99.90;;;;;;5044629;28;20095;-75
2020/12/05 10:49:30;;;;;;;22.63;15.32;;;2.00;99.90;;;;;;5049943;28;20084;-73
2020/12/05 10:51:57;;;;;;;21.02;14.60;;;1.90;99.90;;;;;;5049462;28;20089;-74
2020/12/05 10:54:24;;;;;;;22.20;15.60;;;1.80;99.90;;;;;;5048384;28;20057;-73
2020/12/05 10:56:51;;;;;;;26.83;17.15;;;1.80;99.90;;;;;;5047870;28;20041;-74
2020/12/05 10:59:18;;;;;;;31.52;21.65;;;1.70;99.90;;;;;;5049141;28;20467;-73
2020/12/05 11:01:44;;;;;;;29.42;18.98;;;1.70;99.90;;;;;;5047213;28;20535;-73
2020/12/05 11:04:11;;;;;;;25.88;17.70;;;1.70;99.90;;;;;;5048280;28;20052;-73
2020/12/05 11:06:37;;;;;;;25.77;17.98;;;1.70;99.90;;;;;;5042651;28;20114;-73
2020/12/05 11:09:04;;;;;;;53.55;28.63;;;1.80;99.90;;;;;;5047152;28;20128;-74
2020/12/05 11:11:30;;;;;;;46.75;25.83;;;1.70;99.90;;;;;;5047655;28;20522;-73
2020/12/05 11:13:57;;;;;;;39.50;21.15;;;1.70;99.90;;;;;;5048856;28;20129;-74
2020/12/05 11:16:24;;;;;;;26.42;18.67;;;1.70;99.90;;;;;;4698586;28;10000027;-75
2020/12/05 11:18:52;;;;;;;27.98;19.90;;;1.80;99.90;;;;;;5043180;28;20058;-73
2020/12/05 11:21:19;;;;;;;28.20;19.33;;;1.80;99.90;;;;;;5027444;28;20049;-75
2020/12/05 11:23:45;;;;;;;28.98;20.83;;;1.80;99.90;;;;;;5026369;28;20077;-73
2020/12/05 11:26:19;;;;;;;23.33;17.50;;;1.80;99.90;;;;;;5022138;28;20100;-72
2020/12/05 11:28:46;;;;;;;21.58;16.05;;;1.90;99.90;;;;;;5024519;28;20111;-71
2020/12/05 11:31:13;;;;;;;30.25;22.02;;;2.00;99.90;;;;;;5024862;28;20096;-74
2020/12/05 11:33:40;;;;;;;26.35;17.83;;;1.90;99.90;;;;;;5023637;28;20076;-74
2020/12/05 11:36:07;;;;;;;25.55;19.13;;;2.00;99.90;;;;;;5009252;28;20349;-78
2020/12/05 11:38:33;;;;;;;26.67;17.15;;;2.00;99.90;;;;;;5020312;28;20116;-76
2020/12/05 11:41:00;;;;;;;29.83;19.02;;;2.00;99.90;;;;;;5015746;28;20158;-73
2020/12/05 11:43:26;;;;;;;28.00;20.40;;;2.00;99.90;;;;;;5009004;28;20057;-72
2020/12/05 11:45:54;;;;;;;22.95;16.38;;;2.00;99.90;;;;;;5008305;28;20053;-74
2020/12/05 11:48:21;;;;;;;42.60;31.42;;;1.90;99.90;;;;;;5024540;28;20128;-73
2020/12/05 11:50:47;;;;;;;24.75;16.75;;;2.00;99.90;;;;;;5026530;28;20041;-74
2020/12/05 11:53:15;;;;;;;28.85;21.23;;;2.00;99.90;;;;;;5007594;28;20049;-74
2020/12/05 11:55:42;;;;;;;24.17;17.20;;;2.10;99.90;;;;;;5019908;28;20064;-74
2020/12/05 11:58:09;;;;;;;28.92;19.67;;;2.00;99.90;;;;;;5020589;28;20060;-76
2020/12/05 12:00:35;;;;;;;30.40;19.90;;;2.00;99.90;;;;;;5025489;28;20052;-73
2020/12/05 12:03:02;;;;;;;36.97;23.92;;;2.00;99.90;;;;;;5021949;28;20128;-76
2020/12/05 12:05:28;;;;;;;24.88;18.73;;;2.00;99.90;;;;;;5022192;28;20054;-74
2020/12/05 12:07:55;;;;;;;28.58;18.17;;;2.00;99.90;;;;;;5019385;28;20531;-74
2020/12/05 12:10:21;;;;;;;27.02;19.17;;;2.00;99.90;;;;;;5020747;28;20069;-74
2020/12/05 12:12:48;;;;;;;26.65;19.15;;;2.10;99.90;;;;;;5026241;28;20456;-72
2020/12/05 12:15:15;;;;;;;24.05;18.55;;;2.10;99.90;;;;;;5006441;28;20092;-72
2020/12/05 12:17:42;;;;;;;24.77;18.33;;;2.10;99.90;;;;;;5023151;28;20219;-71
2020/12/05 12:20:09;;;;;;;25.55;18.38;;;2.10;99.90;;;;;;5023141;28;20081;-72
2020/12/05 12:22:36;;;;;;;34.38;24.65;;;2.10;99.90;;;;;;5025680;28;20041;-74
2020/12/05 12:25:04;;;;;;;35.15;23.05;;;1.90;99.90;;;;;;5003295;28;20092;-74
2020/12/05 12:27:31;;;;;;;28.52;20.00;;;1.90;99.90;;;;;;5026546;28;20095;-75
2020/12/05 12:29:58;;;;;;;35.38;22.83;;;1.90;99.90;;;;;;5025810;28;20563;-75
2020/12/05 12:32:25;;;;;;;34.22;23.15;;;1.90;99.90;;;;;;5024813;28;20053;-75
2020/12/05 12:34:52;;;;;;;33.55;23.27;;;1.90;99.90;;;;;;5025696;28;20472;-74
2020/12/05 12:37:19;;;;;;;32.38;22.48;;;1.90;99.90;;;;;;5022213;28;20050;-74
2020/12/05 12:39:47;;;;;;;32.40;22.23;;;1.90;99.90;;;;;;5019643;28;20041;-73
2020/12/05 12:42:17;;;;;;;30.60;21.63;;;1.90;99.90;;;;;;5024957;28;20111;-74
2020/12/05 12:44:43;;;;;;;31.75;21.75;;;1.90;99.90;;;;;;5011811;28;20076;-73